createdAt,value
2022-10-07T00:00:53.918Z,9.99
2022-10-07T00:03:22.686Z,9.79
2022-10-07T00:06:16.950Z,9.50
2022-10-07T00:08:46.924Z,9.38
2022-10-07T00:11:24.045Z,9.47
2022-10-07T00:13:58.885Z,9.10
2022-10-07T00:16:37.253Z,9.53
2022-10-07T00:19:07.581Z,9.42
2022-10-07T00:21:36.370Z,9.57
2022-10-07T00:24:03.834Z,9.10
2022-10-07T00:26:35.655Z,9.63
2022-10-07T00:29:03.476Z,9.28
2022-10-07T00:31:33.510Z,9.28
2022-10-07T00:34:02.904Z,9.28
2022-10-07T00:36:35.220Z,9.45
2022-10-07T00:39:07.664Z,9.48
2022-10-07T00:41:40.894Z,9.50
2022-10-07T00:44:32.321Z,9.57
2022-10-07T00:47:01.424Z,9.70
2022-10-07T00:49:29.599Z,9.50
2022-10-07T00:51:58.417Z,9.32
2022-10-07T00:54:25.644Z,9.57
2022-10-07T00:56:52.706Z,9.59
2022-10-07T00:59:21.391Z,9.58
2022-10-07T01:01:48.347Z,9.57
2022-10-07T01:04:15.755Z,9.45
2022-10-07T01:06:43.201Z,9.49
2022-10-07T01:09:11.687Z,9.32
2022-10-07T01:12:00.335Z,9.51
2022-10-07T01:14:29.536Z,9.53
2022-10-07T01:17:23.761Z,9.49
2022-10-07T01:20:23.998Z,9.56
2022-10-07T01:23:19.113Z,9.64
2022-10-07T01:25:59.051Z,9.68
2022-10-07T01:28:31.741Z,9.52
2022-10-07T01:31:01.853Z,9.24
2022-10-07T01:33:32.768Z,9.45
2022-10-07T01:36:07.631Z,9.52
2022-10-07T01:38:37.490Z,9.34
2022-10-07T01:41:15.274Z,9.38
2022-10-07T01:43:45.057Z,9.59
2022-10-07T01:46:19.595Z,9.36
2022-10-07T01:48:47.722Z,9.50
2022-10-07T01:51:17.455Z,9.45
2022-10-07T01:53:53.434Z,9.77
2022-10-07T01:56:45.750Z,9.38
2022-10-07T01:59:50.691Z,9.46
2022-10-07T02:02:40.447Z,9.44
2022-10-07T02:05:09.364Z,9.40
2022-10-07T02:07:45.691Z,9.44
2022-10-07T02:10:17.952Z,9.45
2022-10-07T02:13:07.095Z,9.40
2022-10-07T02:16:02.869Z,9.41
2022-10-07T02:18:33.290Z,9.15
2022-10-07T02:21:04.166Z,9.28
2022-10-07T02:23:34.495Z,9.46
2022-10-07T02:26:03.899Z,9.55
2022-10-07T02:28:32.915Z,9.62
2022-10-07T02:31:04.501Z,9.52
2022-10-07T02:33:34.658Z,9.50
2022-10-07T02:36:10.840Z,9.30
2022-10-07T02:38:39.874Z,9.41
2022-10-07T02:41:33.537Z,9.67
2022-10-07T02:44:26.080Z,9.69
2022-10-07T02:47:05.211Z,9.57
2022-10-07T02:49:38.588Z,9.80
2022-10-07T02:52:10.137Z,9.57
2022-10-07T02:54:42.767Z,9.77
2022-10-07T02:57:13.685Z,9.69
2022-10-07T02:59:42.581Z,9.76
2022-10-07T03:02:16.948Z,9.99
2022-10-07T03:04:44.518Z,9.89
2022-10-07T03:07:13.271Z,9.83
2022-10-07T03:09:41.955Z,9.84
2022-10-07T03:12:10.781Z,9.82
2022-10-07T03:14:37.946Z,9.65
2022-10-07T03:17:07.152Z,9.72
2022-10-07T03:19:34.422Z,9.67
2022-10-07T03:22:02.478Z,9.63
2022-10-07T03:24:32.318Z,9.35
2022-10-07T03:26:59.237Z,9.46
2022-10-07T03:29:26.697Z,9.25
2022-10-07T03:31:55.554Z,9.43
2022-10-07T03:34:23.318Z,9.22
2022-10-07T03:36:50.619Z,9.25
2022-10-07T03:39:17.730Z,9.31
2022-10-07T03:41:44.651Z,9.06
2022-10-07T03:44:11.639Z,9.03
2022-10-07T03:46:38.998Z,8.93
2022-10-07T03:49:05.926Z,9.14
2022-10-07T03:51:33.266Z,9.16
2022-10-07T03:54:01.479Z,8.96
2022-10-07T03:56:31.841Z,9.15
2022-10-07T03:59:00.237Z,9.29
2022-10-07T04:01:27.292Z,8.99
2022-10-07T04:03:59.894Z,9.06
2022-10-07T04:06:29.584Z,9.13
2022-10-07T04:08:57.470Z,9.23
2022-10-07T04:11:24.516Z,9.06
2022-10-07T04:13:55.729Z,9.00
2022-10-07T04:16:25.456Z,9.12
2022-10-07T04:18:55.434Z,8.91
2022-10-07T04:21:23.863Z,9.13
2022-10-07T04:23:50.980Z,9.12
2022-10-07T04:26:18.077Z,9.14
2022-10-07T04:28:49.328Z,9.24
2022-10-07T04:31:21.608Z,9.27
2022-10-07T04:33:54.420Z,9.18
2022-10-07T04:36:27.419Z,9.18
2022-10-07T04:39:15.112Z,9.16
2022-10-07T04:41:51.252Z,9.12
2022-10-07T04:44:22.447Z,8.91
2022-10-07T04:46:56.963Z,8.89
2022-10-07T04:49:26.685Z,9.04
2022-10-07T04:51:54.822Z,8.94
2022-10-07T04:54:25.041Z,9.12
2022-10-07T04:56:54.908Z,9.13
2022-10-07T04:59:27.938Z,9.18
2022-10-07T05:01:57.104Z,9.30
2022-10-07T05:04:24.794Z,9.32
2022-10-07T05:06:53.216Z,9.19
2022-10-07T05:09:20.498Z,8.58
2022-10-07T05:11:49.187Z,9.09
2022-10-07T05:14:21.675Z,8.91
2022-10-07T05:16:51.245Z,9.10
2022-10-07T05:19:20.770Z,9.00
2022-10-07T05:21:48.309Z,9.04
2022-10-07T05:24:15.387Z,9.11
2022-10-07T05:26:42.923Z,9.27
2022-10-07T05:29:10.060Z,9.05
2022-10-07T05:31:44.376Z,9.43
2022-10-07T05:34:13.615Z,9.38
2022-10-07T05:36:41.351Z,9.45
2022-10-07T05:39:09.732Z,9.26
2022-10-07T05:41:51.962Z,9.38
2022-10-07T05:44:24.338Z,9.17
2022-10-07T05:46:53.371Z,9.81
2022-10-07T05:49:21.524Z,9.75
2022-10-07T05:51:49.317Z,9.97
2022-10-07T05:54:17.113Z,10.05
2022-10-07T05:56:45.326Z,9.87
2022-10-07T05:59:14.059Z,10.14
2022-10-07T06:01:43.311Z,10.33
2022-10-07T06:04:15.734Z,10.22
2022-10-07T06:06:47.152Z,10.40
2022-10-07T06:09:50.023Z,10.50
2022-10-07T06:12:36.655Z,10.44
2022-10-07T06:15:09.815Z,10.47
2022-10-07T06:17:45.850Z,10.56
2022-10-07T06:20:17.119Z,10.58
2022-10-07T06:22:45.389Z,10.04
2022-10-07T06:25:14.519Z,10.46
2022-10-07T06:27:42.384Z,10.79
2022-10-07T06:30:10.088Z,10.68
2022-10-07T06:32:37.039Z,10.79
2022-10-07T06:35:05.060Z,10.84
2022-10-07T06:37:33.274Z,10.74
2022-10-07T06:40:01.273Z,10.88
2022-10-07T06:42:31.906Z,10.52
2022-10-07T06:45:17.432Z,10.96
2022-10-07T06:47:45.374Z,10.78
2022-10-07T06:50:13.679Z,10.99
2022-10-07T06:52:43.476Z,10.99
2022-10-07T06:55:11.727Z,10.83
2022-10-07T06:57:46.747Z,11.09
2022-10-07T07:00:17.506Z,11.15
2022-10-07T07:02:45.359Z,11.16
2022-10-07T07:05:14.727Z,11.11
2022-10-07T07:07:42.989Z,11.21
2022-10-07T07:10:10.314Z,11.33
2022-10-07T07:12:41.084Z,11.21
2022-10-07T07:15:09.699Z,11.33
2022-10-07T07:17:37.449Z,11.62
2022-10-07T07:20:05.761Z,11.74
2022-10-07T07:22:32.824Z,11.80
2022-10-07T07:24:59.903Z,11.81
2022-10-07T07:27:27.226Z,11.79
2022-10-07T07:29:54.151Z,11.96
2022-10-07T07:32:21.612Z,12.22
2022-10-07T07:34:48.565Z,12.39
2022-10-07T07:37:20.514Z,12.54
2022-10-07T07:39:51.284Z,12.61
2022-10-07T07:42:19.147Z,12.72
2022-10-07T07:44:47.032Z,12.43
2022-10-07T07:47:17.182Z,12.64
2022-10-07T07:49:45.899Z,12.96
2022-10-07T07:52:17.952Z,13.09
2022-10-07T07:54:48.479Z,13.29
2022-10-07T07:57:15.588Z,13.41
2022-10-07T07:59:42.800Z,13.53
2022-10-07T08:02:15.318Z,13.56
2022-10-07T08:04:46.473Z,13.72
2022-10-07T08:07:14.114Z,13.69
2022-10-07T08:09:44.101Z,13.86
2022-10-07T08:12:12.034Z,13.99
2022-10-07T08:14:40.116Z,13.77
2022-10-07T08:17:07.422Z,14.06
2022-10-07T08:19:35.077Z,14.21
2022-10-07T08:22:04.178Z,14.30
2022-10-07T08:24:31.947Z,14.25
2022-10-07T08:27:01.786Z,14.26
2022-10-07T08:29:30.237Z,14.60
2022-10-07T08:31:57.492Z,14.68
2022-10-07T08:34:24.419Z,14.80
2022-10-07T08:36:51.972Z,14.89
2022-10-07T08:39:19.006Z,14.94
2022-10-07T08:42:13.338Z,14.91
2022-10-07T08:44:42.994Z,15.13
2022-10-07T08:47:38.711Z,15.25
2022-10-07T08:50:16.683Z,15.36
2022-10-07T08:52:51.413Z,15.38
2022-10-07T08:55:24.482Z,15.50
2022-10-07T08:58:21.144Z,15.63
2022-10-07T09:00:54.590Z,15.69
2022-10-07T09:03:31.214Z,15.80
2022-10-07T09:05:59.702Z,15.83
2022-10-07T09:08:34.312Z,15.86
2022-10-07T09:11:16.053Z,16.10
2022-10-07T09:13:48.172Z,16.16
2022-10-07T09:16:26.677Z,16.29
2022-10-07T09:18:56.964Z,16.39
2022-10-07T09:21:29.277Z,16.53
2022-10-07T09:24:01.707Z,16.61
2022-10-07T09:26:28.609Z,16.72
2022-10-07T09:28:55.727Z,16.79
2022-10-07T09:31:25.134Z,16.65
2022-10-07T09:33:54.208Z,16.86
2022-10-07T09:36:21.463Z,17.01
2022-10-07T09:38:52.516Z,17.07
2022-10-07T09:41:35.451Z,17.18
2022-10-07T09:44:17.515Z,17.23
2022-10-07T09:46:49.446Z,17.24
2022-10-07T09:49:28.288Z,17.34
2022-10-07T09:52:15.971Z,17.42
2022-10-07T09:54:45.801Z,17.43
2022-10-07T09:57:36.464Z,17.29
2022-10-07T10:00:12.463Z,17.50
2022-10-07T10:03:07.021Z,17.38
2022-10-07T10:05:39.516Z,17.54
2022-10-07T10:08:18.572Z,17.61
2022-10-07T10:10:56.966Z,17.53
2022-10-07T10:13:36.930Z,17.61
2022-10-07T10:16:24.932Z,17.54
2022-10-07T10:19:02.513Z,17.85
2022-10-07T10:21:41.097Z,17.74
2022-10-07T10:24:15.108Z,17.85
2022-10-07T10:27:01.659Z,17.94
2022-10-07T10:29:54.699Z,17.98
2022-10-07T10:32:37.031Z,18.04
2022-10-07T10:35:20.280Z,18.09
2022-10-07T10:38:04.597Z,18.15
2022-10-07T10:40:42.202Z,18.17
2022-10-07T10:43:35.391Z,18.22
2022-10-07T10:46:17.600Z,18.25
2022-10-07T10:49:07.070Z,18.33
2022-10-07T10:52:04.114Z,18.36
2022-10-07T10:54:43.351Z,18.37
2022-10-07T10:58:00.080Z,18.21
2022-10-07T11:00:42.387Z,18.38
2022-10-07T11:03:18.677Z,18.39
2022-10-07T11:05:47.970Z,18.28
2022-10-07T11:08:17.962Z,18.52
2022-10-07T11:10:48.764Z,18.50
2022-10-07T11:13:21.514Z,18.53
2022-10-07T11:15:59.416Z,18.32
2022-10-07T11:18:33.019Z,18.49
2022-10-07T11:21:01.644Z,18.62
2022-10-07T11:23:51.826Z,18.59
2022-10-07T11:26:34.453Z,18.62
2022-10-07T11:29:25.031Z,18.65
2022-10-07T11:32:06.895Z,18.56
2022-10-07T11:34:40.656Z,18.82
2022-10-07T11:37:16.165Z,18.81
2022-10-07T11:39:43.277Z,18.58
2022-10-07T11:42:16.678Z,18.93
2022-10-07T11:44:43.593Z,18.95
2022-10-07T11:47:17.300Z,18.78
2022-10-07T11:50:14.258Z,18.73
2022-10-07T11:52:46.759Z,19.01
2022-10-07T11:55:27.647Z,18.98
2022-10-07T11:58:00.568Z,19.20
2022-10-07T12:00:31.845Z,19.07
2022-10-07T12:03:33.823Z,19.21
2022-10-07T12:06:13.990Z,19.31
2022-10-07T12:08:43.478Z,19.15
2022-10-07T12:11:13.783Z,19.35
2022-10-07T12:13:52.086Z,19.39
2022-10-07T12:16:28.307Z,19.50
2022-10-07T12:19:07.347Z,19.58
2022-10-07T12:22:12.848Z,19.51
2022-10-07T12:24:45.976Z,19.55
2022-10-07T12:27:28.778Z,19.68
2022-10-07T12:30:00.380Z,19.73
2022-10-07T12:32:46.492Z,19.74
2022-10-07T12:35:35.065Z,19.69
2022-10-07T12:38:24.664Z,19.76
2022-10-07T12:41:04.836Z,19.53
2022-10-07T12:43:45.950Z,19.77
2022-10-07T12:46:17.163Z,19.81
2022-10-07T12:49:07.592Z,19.89
2022-10-07T12:51:39.621Z,19.83
2022-10-07T12:54:20.612Z,19.78
2022-10-07T12:56:49.497Z,19.93
2022-10-07T12:59:54.755Z,19.86
2022-10-07T13:02:36.721Z,19.97
2022-10-07T13:05:31.785Z,19.93
2022-10-07T13:08:33.067Z,19.85
2022-10-07T13:11:09.029Z,19.92
2022-10-07T13:13:52.264Z,19.91
2022-10-07T13:16:42.121Z,19.97
2022-10-07T13:19:32.677Z,20.02
2022-10-07T13:22:15.165Z,20.02
2022-10-07T13:24:53.540Z,19.97
2022-10-07T13:27:27.869Z,20.02
2022-10-07T13:29:57.054Z,20.04
2022-10-07T13:32:33.051Z,20.04
2022-10-07T13:35:19.797Z,20.04
2022-10-07T13:37:47.278Z,19.98
2022-10-07T13:40:40.689Z,19.85
2022-10-07T13:43:09.104Z,19.76
2022-10-07T13:45:43.774Z,19.66
2022-10-07T13:48:21.356Z,19.65
2022-10-07T13:50:51.983Z,19.77
2022-10-07T13:53:30.718Z,19.72
2022-10-07T13:56:16.419Z,19.65
2022-10-07T13:58:43.837Z,19.65
2022-10-07T14:05:05.218Z,19.36
2022-10-07T14:07:32.326Z,19.18
2022-10-07T14:09:59.296Z,19.17
2022-10-07T14:12:43.235Z,18.95
2022-10-07T14:15:23.269Z,18.76
2022-10-07T14:18:13.371Z,18.68
2022-10-07T14:20:51.946Z,18.32
2022-10-07T14:23:31.425Z,18.43
2022-10-07T14:25:59.783Z,18.27
2022-10-07T14:28:28.636Z,18.14
2022-10-07T14:31:38.851Z,18.07
2022-10-07T14:34:35.647Z,17.85
2022-10-07T14:37:27.182Z,17.71
2022-10-07T14:39:56.746Z,17.56
2022-10-07T14:42:29.686Z,17.44
2022-10-07T14:44:57.680Z,17.12
2022-10-07T14:47:28.236Z,17.26
2022-10-07T14:49:57.159Z,16.95
2022-10-07T14:52:32.297Z,16.98
2022-10-07T14:55:03.300Z,16.92
2022-10-07T14:57:30.407Z,16.93
2022-10-07T14:59:57.385Z,16.70
2022-10-07T15:02:24.359Z,16.70
2022-10-07T15:04:51.481Z,16.56
2022-10-07T15:07:18.525Z,16.53
2022-10-07T15:09:46.129Z,16.51
2022-10-07T15:12:15.154Z,16.37
2022-10-07T15:14:42.605Z,16.37
2022-10-07T15:17:12.239Z,16.39
2022-10-07T15:19:39.338Z,16.33
2022-10-07T15:22:06.853Z,16.14
2022-10-07T15:24:34.375Z,16.23
2022-10-07T15:27:01.607Z,16.00
2022-10-07T15:29:28.659Z,15.63
2022-10-07T15:31:55.747Z,15.76
2022-10-07T15:34:22.930Z,15.55
2022-10-07T15:36:50.277Z,15.60
2022-10-07T15:39:17.216Z,15.58
2022-10-07T15:41:44.433Z,15.65
2022-10-07T15:44:16.301Z,15.58
2022-10-07T15:46:46.074Z,15.53
2022-10-07T15:49:13.853Z,15.32
2022-10-07T15:51:41.002Z,15.04
2022-10-07T15:54:09.537Z,15.09
2022-10-07T15:56:36.625Z,14.84
2022-10-07T15:59:04.077Z,14.97
2022-10-07T16:01:34.057Z,14.85
2022-10-07T16:04:02.809Z,14.84
2022-10-07T16:06:33.034Z,15.05
2022-10-07T16:09:00.922Z,15.03
2022-10-07T16:11:29.542Z,14.77
2022-10-07T16:13:56.524Z,14.63
2022-10-07T16:16:26.082Z,14.87
2022-10-07T16:18:54.913Z,14.89
2022-10-07T16:21:29.351Z,14.88
2022-10-07T16:24:05.747Z,14.76
2022-10-07T16:26:35.420Z,14.90
2022-10-07T16:29:23.012Z,14.88
2022-10-07T16:31:54.620Z,14.71
2022-10-07T16:34:24.707Z,14.87
2022-10-07T16:36:51.737Z,14.49
2022-10-07T16:39:20.892Z,14.66
2022-10-07T16:41:49.343Z,14.70
2022-10-07T16:44:16.400Z,14.72
2022-10-07T16:46:44.207Z,14.71
2022-10-07T16:49:14.685Z,14.64
2022-10-07T16:51:41.965Z,14.36
2022-10-07T16:54:15.893Z,14.29
2022-10-07T16:56:49.187Z,14.42
2022-10-07T16:59:23.238Z,14.22
2022-10-07T17:01:56.611Z,14.35
2022-10-07T17:04:25.067Z,14.45
2022-10-07T17:06:52.916Z,14.38
2022-10-07T17:09:21.679Z,14.19
2022-10-07T17:11:48.795Z,13.57
2022-10-07T17:14:21.249Z,13.83
2022-10-07T17:16:55.415Z,13.96
2022-10-07T17:19:24.835Z,13.90
2022-10-07T17:21:53.300Z,13.81
2022-10-07T17:24:23.147Z,13.86
2022-10-07T17:26:50.667Z,13.74
2022-10-07T17:29:20.041Z,13.79
2022-10-07T17:31:50.646Z,13.61
2022-10-07T17:34:20.107Z,13.79
2022-10-07T17:36:48.207Z,13.76
2022-10-07T17:39:15.928Z,13.74
2022-10-07T17:41:42.930Z,13.67
2022-10-07T17:44:15.674Z,13.44
2022-10-07T17:46:42.882Z,13.34
2022-10-07T17:49:13.598Z,13.33
2022-10-07T17:51:43.343Z,13.35
2022-10-07T17:54:12.632Z,12.88
2022-10-07T17:56:39.812Z,12.96
2022-10-07T17:59:06.945Z,13.16
2022-10-07T18:01:35.260Z,13.04
2022-10-07T18:04:07.919Z,13.25
2022-10-07T18:06:36.864Z,13.14
2022-10-07T18:09:09.273Z,12.88
2022-10-07T18:11:55.049Z,13.00
2022-10-07T18:14:40.770Z,12.87
2022-10-07T18:17:09.248Z,12.79
2022-10-07T18:19:36.548Z,12.79
2022-10-07T18:22:03.786Z,12.67
2022-10-07T18:24:31.124Z,12.62
2022-10-07T18:27:00.246Z,12.84
2022-10-07T18:29:28.514Z,12.72
2022-10-07T18:31:56.260Z,12.79
2022-10-07T18:34:23.915Z,12.57
2022-10-07T18:36:55.997Z,12.76
2022-10-07T18:39:24.684Z,12.73
2022-10-07T18:41:51.801Z,12.68
2022-10-07T18:44:18.893Z,12.40
2022-10-07T18:46:46.070Z,12.68
2022-10-07T18:49:14.303Z,12.66
2022-10-07T18:51:41.512Z,12.64
2022-10-07T18:54:09.992Z,12.31
2022-10-07T18:56:40.756Z,12.64
2022-10-07T18:59:08.320Z,12.66
2022-10-07T19:01:35.584Z,12.29
2022-10-07T19:04:03.855Z,12.51
2022-10-07T19:06:33.498Z,12.53
2022-10-07T19:09:02.815Z,12.45
2022-10-07T19:11:34.154Z,12.39
2022-10-07T19:14:01.674Z,12.21
2022-10-07T19:16:36.464Z,12.39
2022-10-07T19:19:07.701Z,12.35
2022-10-07T19:21:35.752Z,12.18
2022-10-07T19:24:04.572Z,12.28
2022-10-07T19:26:37.199Z,12.05
2022-10-07T19:29:05.981Z,12.21
2022-10-07T19:31:35.740Z,11.85
2022-10-07T19:34:12.992Z,11.76
2022-10-07T19:36:42.655Z,12.20
2022-10-07T19:39:10.882Z,12.22
2022-10-07T19:41:37.906Z,12.16
2022-10-07T19:44:05.750Z,12.19
2022-10-07T19:46:33.989Z,11.95
2022-10-07T19:49:02.560Z,12.15
2022-10-07T19:51:31.393Z,11.81
2022-10-07T19:54:00.305Z,12.10
2022-10-07T19:56:29.378Z,12.15
2022-10-07T19:58:58.865Z,12.03
2022-10-07T20:01:29.448Z,12.19
2022-10-07T20:03:59.948Z,11.88
2022-10-07T20:06:27.925Z,11.88
2022-10-07T20:08:55.970Z,12.10
2022-10-07T20:11:23.401Z,11.89
2022-10-07T20:13:51.908Z,11.98
2022-10-07T20:16:21.248Z,11.85
2022-10-07T20:18:50.487Z,11.63
2022-10-07T20:21:23.997Z,11.65
2022-10-07T20:23:53.928Z,11.47
2022-10-07T20:26:29.854Z,11.65
2022-10-07T20:28:59.711Z,11.47
2022-10-07T20:31:29.686Z,11.55
2022-10-07T20:33:58.140Z,11.49
2022-10-07T20:36:31.425Z,11.41
2022-10-07T20:39:25.491Z,11.42
2022-10-07T20:42:12.084Z,11.37
2022-10-07T20:44:39.751Z,11.08
2022-10-07T20:47:08.842Z,11.13
2022-10-07T20:49:37.546Z,11.27
2022-10-07T20:52:07.189Z,11.10
2022-10-07T20:54:34.250Z,11.06
2022-10-07T20:57:01.159Z,10.76
2022-10-07T20:59:30.388Z,11.08
2022-10-07T21:04:52.499Z,11.02
2022-10-07T21:07:20.221Z,11.02
2022-10-07T21:09:48.110Z,10.84
2022-10-07T21:12:18.202Z,10.75
2022-10-07T21:14:47.960Z,10.94
2022-10-07T21:17:15.381Z,10.88
2022-10-07T21:19:42.494Z,10.99
2022-10-07T21:22:09.633Z,10.90
2022-10-07T21:24:36.672Z,10.83
2022-10-07T21:27:06.115Z,10.58
2022-10-07T21:29:37.518Z,10.71
2022-10-07T21:32:07.680Z,10.68
2022-10-07T21:34:34.718Z,10.69
2022-10-07T21:37:01.774Z,10.68
2022-10-07T21:39:29.130Z,10.67
2022-10-07T21:41:58.084Z,10.68
2022-10-07T21:44:27.000Z,10.36
2022-10-07T21:46:54.010Z,10.71
2022-10-07T21:49:20.954Z,10.23
2022-10-07T21:51:48.160Z,10.32
2022-10-07T21:54:15.612Z,10.30
2022-10-07T21:56:46.201Z,10.56
2022-10-07T21:59:14.438Z,10.39
2022-10-07T22:01:42.707Z,10.53
2022-10-07T22:04:16.060Z,10.52
2022-10-07T22:07:02.096Z,10.62
2022-10-07T22:09:29.502Z,10.64
2022-10-07T22:11:57.238Z,10.62
2022-10-07T22:14:24.233Z,10.20
2022-10-07T22:16:51.231Z,10.58
2022-10-07T22:19:18.189Z,10.54
2022-10-07T22:21:46.067Z,10.59
2022-10-07T22:24:14.160Z,10.89
2022-10-07T22:26:46.986Z,10.75
2022-10-07T22:29:16.309Z,10.73
2022-10-07T22:31:43.898Z,10.64
2022-10-07T22:34:31.753Z,10.69
2022-10-07T22:36:58.793Z,10.75
2022-10-07T22:39:26.890Z,10.75
2022-10-07T22:41:54.097Z,10.69
2022-10-07T22:44:21.071Z,10.70
2022-10-07T22:46:48.227Z,10.94
2022-10-07T22:49:15.351Z,10.99
2022-10-07T22:51:43.205Z,10.68
2022-10-07T22:54:14.497Z,10.63
2022-10-07T22:56:41.423Z,11.05
2022-10-07T22:59:08.832Z,11.08
2022-10-07T23:01:36.752Z,11.07
2022-10-07T23:04:04.932Z,10.90
2022-10-07T23:06:34.760Z,10.63
2022-10-07T23:09:02.805Z,10.99
2022-10-07T23:11:30.558Z,10.73
2022-10-07T23:13:57.644Z,10.91
2022-10-07T23:16:28.107Z,11.19
2022-10-07T23:18:55.638Z,11.16
2022-10-07T23:21:28.215Z,11.20
2022-10-07T23:24:05.971Z,11.05
2022-10-07T23:26:34.398Z,11.24
2022-10-07T23:29:01.819Z,10.87
2022-10-07T23:31:31.794Z,11.28
2022-10-07T23:34:00.636Z,11.20
2022-10-07T23:36:28.336Z,11.03
2022-10-07T23:38:55.632Z,11.16
2022-10-07T23:41:25.248Z,11.37
2022-10-07T23:43:54.223Z,11.23
2022-10-07T23:46:23.522Z,10.77
2022-10-07T23:48:51.124Z,11.04
2022-10-07T23:51:20.743Z,11.04
2022-10-07T23:53:48.750Z,11.23
2022-10-07T23:56:15.967Z,11.22
2022-10-07T23:58:42.972Z,11.16
